createdAt,value
2023-04-28T00:00:47.080Z,6.5
2023-04-28T00:03:49.131Z,7
2023-04-28T00:06:51.027Z,7.3
2023-04-28T00:09:53.045Z,10.5
2023-04-28T00:12:55.052Z,6.3
2023-04-28T00:15:57.043Z,8.8
2023-04-28T00:18:58.972Z,8.1
2023-04-28T00:22:00.932Z,7.3
2023-04-28T00:25:02.897Z,8.4
2023-04-28T00:28:04.876Z,6.2
2023-04-28T00:31:06.842Z,6.8
2023-04-28T00:34:08.794Z,7.6
2023-04-28T00:37:10.771Z,6.4
2023-04-28T00:40:12.733Z,7.7
2023-04-28T00:43:14.698Z,11.1
2023-04-28T00:46:16.632Z,6.2
2023-04-28T00:49:18.579Z,6.1
2023-04-28T00:52:20.542Z,7.2
2023-04-28T00:55:22.532Z,4.9
2023-04-28T00:58:24.469Z,7.6
2023-04-28T01:01:26.477Z,7.8
2023-04-28T01:04:28.605Z,6.2
2023-04-28T01:07:30.415Z,6.8
2023-04-28T01:10:32.378Z,6.2
2023-04-28T01:13:34.339Z,5.6
2023-04-28T01:16:36.382Z,5.5
2023-04-28T01:19:38.475Z,7.3
2023-04-28T01:22:40.253Z,7.2
2023-04-28T01:25:42.221Z,5.6
2023-04-28T01:28:44.224Z,5.7
2023-04-28T01:31:46.151Z,7.3
2023-04-28T01:34:48.095Z,7.5
2023-04-28T01:37:50.121Z,9.4
2023-04-28T01:40:52.072Z,6.4
2023-04-28T01:43:54.010Z,8.3
2023-04-28T01:46:55.994Z,6.2
2023-04-28T01:49:57.949Z,7.6
2023-04-28T01:52:59.880Z,7.7
2023-04-28T01:56:01.887Z,6.1
2023-04-28T01:59:04.069Z,8.2
2023-04-28T02:02:05.839Z,7.3
2023-04-28T02:05:07.763Z,8.1
2023-04-28T02:08:09.751Z,7.8
2023-04-28T02:11:11.692Z,6
2023-04-28T02:14:13.799Z,8.8
2023-04-28T02:17:15.635Z,8.2
2023-04-28T02:20:17.635Z,9.5
2023-04-28T02:23:19.605Z,12.7
2023-04-28T02:26:21.575Z,10.6
2023-04-28T02:29:23.679Z,8.7
2023-04-28T02:32:25.663Z,8.2
2023-04-28T02:35:27.619Z,6.9
2023-04-28T02:38:29.579Z,10.8
2023-04-28T02:41:31.536Z,11.4
2023-04-28T02:44:33.546Z,11.2
2023-04-28T02:47:35.498Z,11.1
2023-04-28T02:50:37.478Z,8.1
2023-04-28T02:53:39.427Z,7
2023-04-28T02:56:41.399Z,10.7
2023-04-28T02:59:43.353Z,9.2
2023-04-28T03:02:45.405Z,10.4
2023-04-28T03:05:47.260Z,11.2
2023-04-28T03:08:49.218Z,9.9
2023-04-28T03:11:51.192Z,8.6
2023-04-28T03:14:53.175Z,8.2
2023-04-28T03:17:55.170Z,8
2023-04-28T03:20:57.117Z,9.4
2023-04-28T03:23:59.089Z,7.3
2023-04-28T03:27:01.065Z,10.4
2023-04-28T03:30:03.039Z,11.6
2023-04-28T03:33:04.986Z,10.1
2023-04-28T03:36:06.945Z,8.9
2023-04-28T03:39:08.932Z,11.6
2023-04-28T03:42:10.879Z,8
2023-04-28T03:45:12.868Z,11.5
2023-04-28T03:48:14.822Z,8.7
2023-04-28T03:51:16.771Z,9.9
2023-04-28T03:54:18.764Z,7.6
2023-04-28T03:57:20.726Z,12.5
2023-04-28T04:00:22.674Z,11.1
2023-04-28T04:03:24.768Z,8.2
2023-04-28T04:06:26.624Z,6.5
2023-04-28T04:09:28.632Z,7.3
2023-04-28T04:12:30.569Z,6.6
2023-04-28T04:15:32.644Z,8.7
2023-04-28T04:18:34.539Z,7.6
2023-04-28T04:21:36.570Z,7.6
2023-04-28T04:24:38.585Z,9.4
2023-04-28T04:27:40.535Z,9
2023-04-28T04:30:42.490Z,8.4
2023-04-28T04:33:44.488Z,7.8
2023-04-28T04:36:46.444Z,7.9
2023-04-28T04:39:48.469Z,9
2023-04-28T04:42:50.347Z,9.3
2023-04-28T04:45:52.309Z,10.8
2023-04-28T04:48:54.391Z,10.9
2023-04-28T04:51:56.269Z,7.4
2023-04-28T04:54:58.210Z,7.2
2023-04-28T04:58:00.159Z,8
2023-04-28T05:01:02.130Z,11.2
2023-04-28T05:04:04.391Z,8
2023-04-28T05:07:06.051Z,7.3
2023-04-28T05:10:08.008Z,10.3
2023-04-28T05:13:10.044Z,13.7
2023-04-28T05:16:12.046Z,11.8
2023-04-28T05:19:13.981Z,13.3
2023-04-28T05:22:15.941Z,12.7
2023-04-28T05:25:17.900Z,13.5
2023-04-28T05:28:21.377Z,14
2023-04-28T05:31:21.839Z,12.7
2023-04-28T05:34:23.804Z,12.7
2023-04-28T05:37:25.728Z,14.4
2023-04-28T05:40:27.701Z,13.6
2023-04-28T05:43:29.652Z,11.4
2023-04-28T05:46:31.668Z,10.5
2023-04-28T05:49:33.593Z,12
2023-04-28T05:52:35.538Z,13.4
2023-04-28T05:55:37.525Z,13.2
2023-04-28T05:58:39.492Z,16.7
2023-04-28T06:01:41.459Z,15.6
2023-04-28T06:04:43.582Z,13.6
2023-04-28T06:07:45.482Z,16
2023-04-28T06:10:47.433Z,13.7
2023-04-28T06:13:49.372Z,18.5
2023-04-28T06:16:54.214Z,17.2
2023-04-28T06:19:56.209Z,17.8
2023-04-28T06:22:58.165Z,15.4
2023-04-28T06:26:00.132Z,16.6
2023-04-28T06:29:02.099Z,17.5
2023-04-28T06:32:04.231Z,15.3
2023-04-28T06:35:06.028Z,16.6
2023-04-28T06:38:08.007Z,15.6
2023-04-28T06:41:09.977Z,16.2
2023-04-28T06:44:11.921Z,18.4
2023-04-28T06:47:13.869Z,18.9
2023-04-28T06:50:15.854Z,17.6
2023-04-28T06:53:17.785Z,16.2
2023-04-28T06:56:19.774Z,12.3
2023-04-28T06:59:21.749Z,15.8
2023-04-28T07:02:23.971Z,14.7
2023-04-28T07:05:25.717Z,16.1
2023-04-28T07:08:27.698Z,15.5
2023-04-28T07:11:29.644Z,13.1
2023-04-28T07:14:31.613Z,14.8
2023-04-28T07:17:33.673Z,16
2023-04-28T07:20:35.538Z,13.7
2023-04-28T07:23:37.610Z,16.3
2023-04-28T07:26:40.069Z,13.3
2023-04-28T07:29:41.478Z,13.4
2023-04-28T07:32:43.460Z,16.2
2023-04-28T07:35:45.369Z,14
2023-04-28T07:38:47.330Z,17.3
2023-04-28T07:41:49.290Z,17.5
2023-04-28T07:44:51.283Z,15.1
2023-04-28T07:47:53.290Z,18.9
2023-04-28T07:50:55.196Z,18.2
2023-04-28T07:53:57.170Z,14.3
2023-04-28T07:56:59.165Z,11.8
2023-04-28T08:00:02.573Z,12.7
2023-04-28T08:03:03.142Z,15.5
2023-04-28T08:06:05.247Z,18
2023-04-28T08:09:07.055Z,15.8
2023-04-28T08:12:09.021Z,15.2
2023-04-28T08:15:10.916Z,15.2
2023-04-28T08:18:12.962Z,16.9
2023-04-28T08:21:14.868Z,15.1
2023-04-28T08:24:16.970Z,15.8
2023-04-28T08:27:18.785Z,20.7
2023-04-28T08:30:20.749Z,28.2
2023-04-28T08:33:22.674Z,17.7
2023-04-28T08:36:24.634Z,15.6
2023-04-28T08:39:26.579Z,12.7
2023-04-28T08:42:28.553Z,18.5
2023-04-28T08:45:30.533Z,22.8
2023-04-28T08:48:32.487Z,21.1
2023-04-28T08:51:34.453Z,18.9
2023-04-28T08:54:36.701Z,20.9
2023-04-28T08:57:39.415Z,21.5
2023-04-28T09:00:40.332Z,18.9
2023-04-28T09:03:42.485Z,21.9
2023-04-28T09:06:44.313Z,20.5
2023-04-28T09:09:46.249Z,18.1
2023-04-28T09:12:48.221Z,17.6
2023-04-28T09:15:50.131Z,22
2023-04-28T09:18:52.174Z,18.6
2023-04-28T09:21:54.144Z,19.6
2023-04-28T09:24:56.032Z,18.8
2023-04-28T09:27:58.006Z,16.9
2023-04-28T09:30:59.952Z,21.5
2023-04-28T09:34:01.953Z,24.1
2023-04-28T09:37:03.928Z,23.9
2023-04-28T09:40:05.845Z,24.5
2023-04-28T09:43:18.907Z,24.3
2023-04-28T09:46:09.793Z,19.2
2023-04-28T09:49:11.749Z,23.8
2023-04-28T09:52:13.791Z,14.9
2023-04-28T09:55:15.700Z,21
2023-04-28T09:58:17.660Z,20.2
2023-04-28T10:01:19.726Z,17.8
2023-04-28T10:04:21.740Z,25.7
2023-04-28T10:07:23.593Z,26.2
2023-04-28T10:10:25.570Z,15.7
2023-04-28T10:13:27.566Z,20.7
2023-04-28T10:16:29.564Z,21.3
2023-04-28T10:19:31.456Z,25.9
2023-04-28T10:22:33.423Z,20.7
2023-04-28T10:25:35.408Z,21.3
2023-04-28T10:28:37.374Z,21.9
2023-04-28T10:31:39.371Z,20.8
2023-04-28T10:34:41.290Z,22.4
2023-04-28T10:37:43.263Z,23.8
2023-04-28T10:40:45.276Z,25.4
2023-04-28T10:43:47.246Z,31
2023-04-28T10:46:49.242Z,25.9
2023-04-28T10:49:51.168Z,25.7
2023-04-28T10:52:53.109Z,30.1
2023-04-28T10:55:55.132Z,29
2023-04-28T10:58:57.018Z,21.6
2023-04-28T11:01:59.008Z,20.3
2023-04-28T11:05:00.992Z,28.7
2023-04-28T11:08:02.947Z,27.6
2023-04-28T11:11:04.918Z,27
2023-04-28T11:14:06.857Z,24.7
2023-04-28T11:17:08.858Z,25.8
2023-04-28T11:20:10.805Z,22.5
2023-04-28T11:23:12.754Z,21.2
2023-04-28T11:26:14.730Z,18.6
2023-04-28T11:29:16.734Z,20.3
2023-04-28T11:32:18.658Z,22.5
2023-04-28T11:35:20.716Z,20.6
2023-04-28T11:38:22.658Z,14.6
2023-04-28T11:41:24.636Z,19
2023-04-28T11:44:26.561Z,16.5
2023-04-28T11:47:28.587Z,14.9
2023-04-28T11:50:30.492Z,14.9
2023-04-28T11:53:32.462Z,16.7
2023-04-28T11:56:34.442Z,16.6
2023-04-28T11:59:36.952Z,18
2023-04-28T12:02:38.544Z,12.3
2023-04-28T12:05:40.320Z,14.3
2023-04-28T12:08:42.264Z,13.9
2023-04-28T12:11:44.268Z,11.8
2023-04-28T12:14:46.235Z,11.4
2023-04-28T12:17:48.255Z,9.5
2023-04-28T12:20:50.121Z,9.2
2023-04-28T12:23:52.072Z,9.9
2023-04-28T12:26:54.049Z,10.1
2023-04-28T12:29:56.017Z,8.6
2023-04-28T12:32:58.038Z,10.2
2023-04-28T12:35:59.970Z,8.7
2023-04-28T12:39:01.933Z,9.2
2023-04-28T12:42:03.934Z,5.4
2023-04-28T12:45:05.873Z,6.3
2023-04-28T12:48:07.937Z,5
2023-04-28T12:51:09.862Z,5.5
2023-04-28T12:54:11.827Z,4.6
2023-04-28T12:57:13.777Z,5.8
2023-04-28T13:00:15.742Z,4.9
2023-04-28T13:03:17.863Z,5.3
2023-04-28T13:06:19.689Z,4.4
2023-04-28T13:09:21.725Z,5.4
2023-04-28T13:12:23.615Z,3.9
2023-04-28T13:15:25.581Z,4.7
2023-04-28T13:18:27.524Z,3.4
2023-04-28T13:21:29.492Z,4
2023-04-28T13:24:31.465Z,4.7
2023-04-28T13:27:33.485Z,3.3
2023-04-28T13:30:35.447Z,3.7
2023-04-28T13:33:37.357Z,6.6
2023-04-28T13:36:39.617Z,4.3
2023-04-28T13:39:41.289Z,3
2023-04-28T13:42:43.243Z,5.7
2023-04-28T13:45:45.271Z,8.2
2023-04-28T13:48:47.173Z,3.9
2023-04-28T13:51:49.137Z,4.3
2023-04-28T13:54:51.094Z,4.1
2023-04-28T13:57:53.082Z,4.7
2023-04-28T14:03:57.073Z,4.8
2023-04-28T14:06:58.944Z,3.8
2023-04-28T14:10:00.890Z,3.7
2023-04-28T14:13:02.867Z,4.4
2023-04-28T14:16:04.868Z,5.7
2023-04-28T14:19:06.849Z,5.4
2023-04-28T14:22:08.831Z,6.1
2023-04-28T14:25:10.762Z,5.5
2023-04-28T14:28:12.734Z,5.6
2023-04-28T14:31:14.819Z,4.9
2023-04-28T14:34:16.754Z,5.3
2023-04-28T14:37:18.669Z,4.6
2023-04-28T14:40:20.637Z,4.8
2023-04-28T14:43:22.594Z,3.4
2023-04-28T14:46:24.613Z,3
2023-04-28T14:49:26.540Z,3.5
2023-04-28T14:52:28.518Z,3.4
2023-04-28T14:55:30.444Z,3.5
2023-04-28T14:58:32.427Z,3.9
2023-04-28T15:01:34.468Z,3
2023-04-28T15:04:36.458Z,2.3
2023-04-28T15:07:38.389Z,4.6
2023-04-28T15:10:40.464Z,2.6
2023-04-28T15:13:43.148Z,3.2
2023-04-28T15:16:44.351Z,2.2
2023-04-28T15:19:46.446Z,2.5
2023-04-28T15:22:48.348Z,2.5
2023-04-28T15:25:50.295Z,2.4
2023-04-28T15:28:52.269Z,2.3
2023-04-28T15:31:54.361Z,2
2023-04-28T15:34:56.315Z,2.1
2023-04-28T15:37:58.288Z,1.9
2023-04-28T15:41:00.261Z,1.6
2023-04-28T15:44:02.233Z,1.7
2023-04-28T15:47:04.184Z,1.8
2023-04-28T15:50:06.154Z,2.2
2023-04-28T15:53:08.204Z,1.4
2023-04-28T15:56:10.197Z,1.6
2023-04-28T15:59:12.156Z,2.2
2023-04-28T16:02:14.185Z,3.4
2023-04-28T16:05:16.153Z,2.9
2023-04-28T16:08:18.110Z,2.8
2023-04-28T16:11:20.051Z,2.6
2023-04-28T16:14:22.030Z,2.5
2023-04-28T16:17:24.011Z,2.9
2023-04-28T16:20:25.894Z,2.1
2023-04-28T16:23:27.931Z,2.6
2023-04-28T16:26:29.851Z,2.8
2023-04-28T16:29:31.799Z,2.9
2023-04-28T16:32:33.874Z,2.7
2023-04-28T16:35:35.802Z,2.8
2023-04-28T16:38:37.723Z,2.4
2023-04-28T16:44:41.680Z,2.2
2023-04-28T16:47:44.068Z,3.1
2023-04-28T16:50:45.610Z,1.9
2023-04-28T16:53:47.574Z,2.8
2023-04-28T16:56:49.581Z,2
2023-04-28T16:59:51.708Z,2.3
2023-04-28T17:02:53.646Z,3
2023-04-28T17:05:55.472Z,3.7
2023-04-28T17:08:57.430Z,1.7
2023-04-28T17:11:59.402Z,2.5
2023-04-28T17:15:01.360Z,5.4
2023-04-28T17:18:03.360Z,2.2
2023-04-28T17:21:05.304Z,2
2023-04-28T17:24:07.291Z,2.1
2023-04-28T17:27:09.390Z,2.2
2023-04-28T17:30:11.354Z,2.4
2023-04-28T17:33:13.353Z,2
2023-04-28T17:36:15.258Z,2
2023-04-28T17:39:17.260Z,1.8
2023-04-28T17:42:19.276Z,2
2023-04-28T17:45:21.173Z,1.8
2023-04-28T17:48:23.173Z,1.8
2023-04-28T17:51:25.095Z,3.1
2023-04-28T17:54:27.141Z,1.5
2023-04-28T17:57:29.129Z,3
2023-04-28T18:00:31.113Z,2.3
2023-04-28T18:03:33.144Z,1.8
2023-04-28T18:06:35.093Z,2.5
2023-04-28T18:09:37.366Z,3.1
2023-04-28T18:12:39.193Z,2.4
2023-04-28T18:15:41.121Z,1.8
2023-04-28T18:18:43.160Z,3.2
2023-04-28T18:21:45.047Z,2
2023-04-28T18:24:47.052Z,2.6
2023-04-28T18:27:49.044Z,3.2
2023-04-28T18:30:51.010Z,3.1
2023-04-28T18:33:52.954Z,2.5
2023-04-28T18:36:54.915Z,2.3
2023-04-28T18:39:56.865Z,3.1
2023-04-28T18:42:58.826Z,2.7
2023-04-28T18:46:00.789Z,2.6
2023-04-28T18:49:02.794Z,2.6
2023-04-28T18:52:04.716Z,1.7
2023-04-28T18:55:06.746Z,3
2023-04-28T18:58:08.757Z,3
2023-04-28T19:01:10.729Z,2.6
2023-04-28T19:04:12.770Z,2.9
2023-04-28T19:07:14.630Z,3.8
2023-04-28T19:10:16.592Z,5.1
2023-04-28T19:13:18.624Z,2.7
2023-04-28T19:16:20.561Z,4.1
2023-04-28T19:19:22.572Z,5.1
2023-04-28T19:22:24.533Z,4.2
2023-04-28T19:25:26.554Z,4.9
2023-04-28T19:28:28.506Z,4.7
2023-04-28T19:31:30.485Z,4.7
2023-04-28T19:34:32.388Z,5
2023-04-28T19:37:34.345Z,4.5
2023-04-28T19:40:36.329Z,4
2023-04-28T19:43:38.280Z,4.9
2023-04-28T19:46:40.349Z,3.9
2023-04-28T19:49:45.097Z,3.5
2023-04-28T19:52:47.128Z,3.5
2023-04-28T19:55:49.104Z,2.9
2023-04-28T19:58:51.080Z,3.6
2023-04-28T20:01:53.066Z,3.1
2023-04-28T20:04:54.993Z,3.1
2023-04-28T20:07:56.976Z,3.6
2023-04-28T20:10:58.906Z,3.6
2023-04-28T20:14:00.879Z,3.3
2023-04-28T20:17:02.833Z,4.7
2023-04-28T20:20:04.881Z,3.5
2023-04-28T20:23:06.787Z,5.2
2023-04-28T20:26:08.772Z,4.4
2023-04-28T20:29:10.758Z,4.9
2023-04-28T20:32:12.755Z,5.3
2023-04-28T20:35:14.688Z,3.9
2023-04-28T20:38:16.650Z,4.7
2023-04-28T20:41:18.649Z,4.7
2023-04-28T20:44:22.107Z,5.6
2023-04-28T20:47:22.602Z,5.8
2023-04-28T20:50:24.624Z,6.7
2023-04-28T20:53:26.504Z,6
2023-04-28T20:56:28.517Z,4.9
2023-04-28T20:59:32.389Z,8.5
2023-04-28T21:02:32.758Z,7.4
2023-04-28T21:05:34.547Z,7.1
2023-04-28T21:08:36.609Z,8.3
2023-04-28T21:11:38.462Z,7.2
2023-04-28T21:14:40.413Z,5.9
2023-04-28T21:17:42.386Z,5.4
2023-04-28T21:20:44.390Z,4.8
2023-04-28T21:23:46.300Z,4.9
2023-04-28T21:26:48.335Z,3.6
2023-04-28T21:29:50.501Z,3
2023-04-28T21:32:52.226Z,5.3
2023-04-28T21:35:54.179Z,2.3
2023-04-28T21:38:56.185Z,3.6
2023-04-28T21:41:58.144Z,2.3
2023-04-28T21:45:00.130Z,1.9
2023-04-28T21:48:02.105Z,3.2
2023-04-28T21:51:04.028Z,2.1
2023-04-28T21:54:06.369Z,3.1
2023-04-28T21:57:08.087Z,1.9
2023-04-28T22:00:10.052Z,2
2023-04-28T22:03:12.120Z,2.9
2023-04-28T22:06:13.977Z,2.2
2023-04-28T22:09:15.947Z,2.5
2023-04-28T22:12:17.932Z,2.3
2023-04-28T22:15:19.958Z,2.5
2023-04-28T22:18:21.893Z,2.3
2023-04-28T22:21:23.893Z,2.4
2023-04-28T22:24:25.838Z,2
2023-04-28T22:27:27.901Z,2.1
2023-04-28T22:30:29.841Z,3.4
2023-04-28T22:33:31.788Z,2.4
2023-04-28T22:36:33.752Z,2.3
2023-04-28T22:39:35.710Z,2.7
2023-04-28T22:42:37.817Z,3
2023-04-28T22:45:39.781Z,4.8
2023-04-28T22:48:41.720Z,3.4
2023-04-28T22:51:43.735Z,3.6
2023-04-28T22:54:45.646Z,4.3
2023-04-28T22:57:47.661Z,4.5
2023-04-28T23:00:49.605Z,3.7
2023-04-28T23:03:51.721Z,3
2023-04-28T23:06:53.558Z,3.3
2023-04-28T23:09:55.566Z,3.2
2023-04-28T23:12:57.511Z,3.5
2023-04-28T23:15:59.553Z,4.1
2023-04-28T23:19:01.422Z,4
2023-04-28T23:22:03.379Z,3
2023-04-28T23:25:05.326Z,3.7
2023-04-28T23:28:07.281Z,3.2
2023-04-28T23:31:09.252Z,3.7
2023-04-28T23:34:11.205Z,3
2023-04-28T23:37:13.174Z,4
2023-04-28T23:40:15.133Z,3.2
2023-04-28T23:43:17.129Z,3
2023-04-28T23:46:19.145Z,3.6
2023-04-28T23:49:21.076Z,3.3
2023-04-28T23:52:23.049Z,3.7
2023-04-28T23:55:25.010Z,4.5
2023-04-28T23:58:26.967Z,2.7
